Time;durP1;ratioP1;P1;durP2;ratioP2;P2;SDS_P1;SDS_P2;PMS_P1;PMS_P2;Temp;Humidity;BMP_temperature;BMP_pressure;BME280_temperature;BME280_humidity;BME280_pressure;Samples;Min_cycle;Max_cycle;Signal;HPM_P1;HPM_P2
2022/04/06 00:01:30;;;;;;;125.15;112.00;;;9.80;99.80;;;;;;5034162;28;20053;-77
2022/04/06 00:03:57;;;;;;;124.15;111.22;;;9.80;99.80;;;;;;5017865;28;20136;-78
2022/04/06 00:06:24;;;;;;;123.47;111.18;;;9.80;99.80;;;;;;5017345;28;20085;-77
2022/04/06 00:08:50;;;;;;;126.38;112.40;;;9.90;99.80;;;;;;5017135;28;20058;-77
2022/04/06 00:11:17;;;;;;;125.80;112.55;;;9.80;99.70;;;;;;5017400;28;20065;-77
2022/04/06 00:13:46;;;;;;;122.88;110.43;;;9.90;99.80;;;;;;5033553;28;20509;-77
2022/04/06 00:16:13;;;;;;;124.07;111.35;;;9.90;99.70;;;;;;5033792;28;20109;-77
2022/04/06 00:18:39;;;;;;;124.78;112.13;;;9.80;99.70;;;;;;5033272;28;20567;-77
2022/04/06 00:21:06;;;;;;;124.70;112.00;;;9.80;99.70;;;;;;5035015;28;20046;-77
2022/04/06 00:23:33;;;;;;;126.88;113.03;;;9.80;99.60;;;;;;5017061;28;20050;-77
2022/04/06 00:26:00;;;;;;;126.75;113.75;;;9.80;99.70;;;;;;5033510;28;20038;-77
2022/04/06 00:28:27;;;;;;;127.22;114.25;;;9.90;99.70;;;;;;5016870;28;20061;-77
2022/04/06 00:30:55;;;;;;;128.25;115.28;;;9.90;99.70;;;;;;5017161;28;20084;-78
2022/04/06 00:33:22;;;;;;;128.77;115.38;;;9.90;99.70;;;;;;5000607;28;20060;-77
2022/04/06 00:35:51;;;;;;;128.60;115.30;;;9.90;99.60;;;;;;5016953;28;20046;-77
2022/04/06 00:38:18;;;;;;;125.82;112.35;;;9.90;99.60;;;;;;5030885;28;20046;-78
2022/04/06 00:40:45;;;;;;;125.57;112.43;;;9.90;99.60;;;;;;5016939;28;20053;-77
2022/04/06 00:43:14;;;;;;;125.85;112.97;;;9.90;99.60;;;;;;5016659;28;20150;-77
2022/04/06 00:45:42;;;;;;;131.90;118.18;;;9.80;99.60;;;;;;5016906;28;20053;-77
2022/04/06 00:48:11;;;;;;;126.00;113.22;;;9.90;99.60;;;;;;5033868;28;20053;-77
2022/04/06 00:50:39;;;;;;;126.05;112.93;;;9.90;99.50;;;;;;5017270;28;20057;-77
2022/04/06 00:53:07;;;;;;;125.65;112.90;;;9.90;99.40;;;;;;5017152;28;20054;-77
2022/04/06 00:55:35;;;;;;;127.10;114.05;;;9.90;99.40;;;;;;5033449;28;20038;-77
2022/04/06 00:58:02;;;;;;;124.55;111.93;;;9.90;99.40;;;;;;5016486;28;20080;-77
2022/04/06 01:00:30;;;;;;;125.00;112.30;;;9.90;99.40;;;;;;5000371;28;20128;-77
2022/04/06 01:02:57;;;;;;;127.03;113.72;;;9.90;99.40;;;;;;5016469;28;20050;-77
2022/04/06 01:05:26;;;;;;;125.00;112.38;;;9.90;99.40;;;;;;5034081;28;20060;-77
2022/04/06 01:07:55;;;;;;;124.47;111.43;;;9.90;99.40;;;;;;5016179;28;20477;-78
2022/04/06 01:10:22;;;;;;;124.75;111.75;;;9.90;99.40;;;;;;5016424;28;20074;-77
2022/04/06 01:12:50;;;;;;;130.48;117.15;;;9.90;99.40;;;;;;5032523;28;20078;-77
2022/04/06 01:15:18;;;;;;;126.50;112.93;;;9.80;99.40;;;;;;5016275;28;20047;-77
2022/04/06 01:17:45;;;;;;;123.45;110.70;;;9.90;99.40;;;;;;5016067;28;20049;-77
2022/04/06 01:20:14;;;;;;;125.22;112.53;;;9.80;99.30;;;;;;5032994;28;20481;-77
2022/04/06 01:22:42;;;;;;;125.70;112.43;;;9.80;99.30;;;;;;5016215;28;20050;-77
2022/04/06 01:25:09;;;;;;;124.13;111.10;;;9.80;99.30;;;;;;5015928;28;20081;-77
2022/04/06 01:27:36;;;;;;;125.20;112.13;;;9.80;99.40;;;;;;5032583;28;20061;-77
2022/04/06 01:30:05;;;;;;;126.18;112.97;;;9.80;99.30;;;;;;5016513;28;20046;-77
2022/04/06 01:32:32;;;;;;;126.07;112.68;;;9.90;99.20;;;;;;5016391;28;20093;-77
2022/04/06 01:35:00;;;;;;;124.93;111.88;;;9.90;99.10;;;;;;5016233;28;20049;-77
2022/04/06 01:37:28;;;;;;;125.05;112.30;;;9.90;99.00;;;;;;5015866;28;20050;-77
2022/04/06 01:39:56;;;;;;;122.10;109.45;;;9.90;99.00;;;;;;5016227;28;20057;-77
2022/04/06 01:42:23;;;;;;;123.28;110.32;;;9.90;99.10;;;;;;5032696;28;20046;-77
2022/04/06 01:44:51;;;;;;;122.95;110.10;;;9.90;99.00;;;;;;5015778;28;20532;-77
2022/04/06 01:47:20;;;;;;;122.18;109.90;;;9.90;98.90;;;;;;5015192;28;20132;-77
2022/04/06 01:52:33;;;;;;;122.78;110.32;;;9.80;98.90;;;;;;5033762;28;20054;-77
2022/04/06 01:55:02;;;;;;;123.80;110.82;;;9.90;98.90;;;;;;5015635;28;20046;-77
2022/04/06 01:57:30;;;;;;;121.88;109.53;;;9.90;98.90;;;;;;4999194;28;20484;-77
2022/04/06 01:59:58;;;;;;;124.10;111.07;;;9.90;98.80;;;;;;5014420;28;20141;-77
2022/04/06 02:02:27;;;;;;;124.47;111.40;;;9.90;98.70;;;;;;5016027;28;20535;-77
2022/04/06 02:04:54;;;;;;;121.90;109.13;;;9.90;98.70;;;;;;5033539;28;20639;-77
2022/04/06 02:07:21;;;;;;;122.90;110.25;;;9.90;98.70;;;;;;5015617;28;20424;-77
2022/04/06 02:09:48;;;;;;;120.68;108.25;;;9.90;98.70;;;;;;5015747;28;20132;-77
2022/04/06 02:12:16;;;;;;;119.57;107.53;;;9.90;98.60;;;;;;5033933;28;20076;-77
2022/04/06 02:14:44;;;;;;;121.20;108.32;;;9.90;98.70;;;;;;5015618;28;20049;-77
2022/04/06 02:17:11;;;;;;;122.70;110.13;;;9.90;98.50;;;;;;5015308;28;20050;-78
2022/04/06 02:19:39;;;;;;;118.35;106.93;;;9.90;98.50;;;;;;5015141;28;20133;-77
2022/04/06 02:22:07;;;;;;;118.15;106.20;;;9.80;98.50;;;;;;5033686;28;20050;-77
2022/04/06 02:24:35;;;;;;;119.97;107.63;;;9.80;98.50;;;;;;5015247;28;20452;-77
2022/04/06 02:27:02;;;;;;;123.32;110.28;;;9.80;98.50;;;;;;5030716;28;20080;-78
2022/04/06 02:29:30;;;;;;;119.78;107.28;;;9.80;98.50;;;;;;5015291;28;20546;-77
2022/04/06 02:31:57;;;;;;;118.03;105.78;;;9.90;98.40;;;;;;4998228;28;20112;-77
2022/04/06 02:34:24;;;;;;;117.47;104.72;;;9.90;98.40;;;;;;4999138;28;20096;-77
2022/04/06 02:36:51;;;;;;;116.75;105.03;;;9.90;98.40;;;;;;5015168;28;20064;-77
2022/04/06 02:39:18;;;;;;;116.63;104.97;;;9.90;98.20;;;;;;5015119;28;20050;-77
2022/04/06 02:41:45;;;;;;;116.25;104.60;;;9.90;98.20;;;;;;5014812;28;20054;-77
2022/04/06 02:44:11;;;;;;;118.97;106.55;;;9.90;98.20;;;;;;5032838;28;20050;-77
2022/04/06 02:46:40;;;;;;;117.22;105.55;;;9.90;98.30;;;;;;5014667;28;20046;-77
2022/04/06 02:49:07;;;;;;;117.05;105.18;;;9.80;98.30;;;;;;5032048;28;20056;-77
2022/04/06 02:51:33;;;;;;;;;;;9.80;98.30;;;;;;5014379;28;20053;-77
2022/04/06 02:54:00;;;;;;;118.45;106.10;;;9.80;98.30;;;;;;5015048;28;20339;-76
2022/04/06 02:56:28;;;;;;;122.60;109.20;;;9.80;98.30;;;;;;5030961;28;20076;-76
2022/04/06 02:58:54;;;;;;;117.10;105.07;;;9.90;98.30;;;;;;4997767;28;20085;-77
2022/04/06 03:01:22;;;;;;;128.77;115.32;;;9.90;98.30;;;;;;5010255;28;20080;-77
2022/04/06 03:03:51;;;;;;;119.82;107.72;;;9.90;98.50;;;;;;5014472;28;20595;-77
2022/04/06 03:06:18;;;;;;;119.68;107.00;;;9.90;98.40;;;;;;5014474;28;20050;-77
2022/04/06 03:08:45;;;;;;;120.32;107.43;;;9.90;98.40;;;;;;5030550;28;20053;-77
2022/04/06 03:11:12;;;;;;;122.45;109.20;;;9.90;98.50;;;;;;5016312;28;20517;-77
2022/04/06 03:13:39;;;;;;;121.00;108.45;;;9.90;98.50;;;;;;5034129;28;20093;-77
2022/04/06 03:16:07;;;;;;;123.80;108.32;;;9.90;98.50;;;;;;5017669;28;20058;-77
2022/04/06 03:18:34;;;;;;;122.97;109.95;;;9.90;98.50;;;;;;5017379;28;20056;-77
2022/04/06 03:21:02;;;;;;;122.28;107.43;;;9.90;98.50;;;;;;5014929;28;20050;-76
2022/04/06 03:23:29;;;;;;;123.40;109.53;;;9.90;98.60;;;;;;5000375;28;20042;-77
2022/04/06 03:25:56;;;;;;;121.45;108.38;;;9.90;98.70;;;;;;5035334;28;20496;-77
2022/04/06 03:28:23;;;;;;;121.53;108.20;;;9.90;98.70;;;;;;5034556;28;20057;-77
2022/04/06 03:30:50;;;;;;;124.28;110.97;;;9.90;98.70;;;;;;5017858;28;20139;-77
2022/04/06 03:33:17;;;;;;;124.07;110.60;;;9.90;98.80;;;;;;5035122;28;20105;-77
2022/04/06 03:35:45;;;;;;;125.25;111.57;;;9.90;98.80;;;;;;5035722;28;20050;-76
2022/04/06 03:38:13;;;;;;;128.57;112.55;;;9.90;98.90;;;;;;5033694;28;20046;-77
2022/04/06 03:40:40;;;;;;;124.75;111.32;;;9.90;98.90;;;;;;5035409;28;20057;-76
2022/04/06 03:43:07;;;;;;;124.07;111.07;;;9.90;99.00;;;;;;5035814;28;20050;-77
2022/04/06 03:45:33;;;;;;;126.43;113.05;;;9.90;99.00;;;;;;5017770;28;20586;-76
2022/04/06 03:48:01;;;;;;;130.93;113.50;;;10.00;98.90;;;;;;5034018;28;20050;-77
2022/04/06 03:50:27;;;;;;;123.95;111.05;;;10.00;99.10;;;;;;5001416;28;20472;-76
2022/04/06 03:52:54;;;;;;;126.53;112.72;;;10.00;98.90;;;;;;5017933;28;20524;-77
2022/04/06 03:55:23;;;;;;;124.75;111.75;;;10.00;98.90;;;;;;5034193;28;20089;-76
2022/04/06 03:57:50;;;;;;;124.72;111.45;;;10.00;98.80;;;;;;5017413;28;20054;-77
2022/04/06 04:00:18;;;;;;;122.88;110.18;;;10.00;98.90;;;;;;5035469;28;20059;-76
2022/04/06 04:02:45;;;;;;;124.65;111.25;;;10.00;98.80;;;;;;5034183;28;20546;-77
2022/04/06 04:05:13;;;;;;;125.78;111.22;;;10.00;98.90;;;;;;5033805;28;20046;-77
2022/04/06 04:07:40;;;;;;;124.50;111.25;;;10.00;98.80;;;;;;5033684;28;20053;-76
2022/04/06 04:10:09;;;;;;;124.40;110.90;;;10.00;98.70;;;;;;5035351;28;20504;-76
2022/04/06 04:12:38;;;;;;;124.55;111.53;;;10.00;98.60;;;;;;5035365;28;20081;-77
2022/04/06 04:15:06;;;;;;;123.63;110.53;;;10.00;98.60;;;;;;5035070;28;20065;-76
2022/04/06 04:17:34;;;;;;;121.65;109.45;;;10.00;98.60;;;;;;5016761;28;20052;-76
2022/04/06 04:20:00;;;;;;;123.43;110.20;;;10.00;98.50;;;;;;5033735;28;20053;-77
2022/04/06 04:22:27;;;;;;;123.25;110.28;;;10.00;98.60;;;;;;5016041;28;20090;-76
2022/04/06 04:24:54;;;;;;;121.68;109.03;;;10.00;98.60;;;;;;5033644;28;20054;-77
2022/04/06 04:27:22;;;;;;;122.60;109.63;;;10.00;98.60;;;;;;5000273;28;20061;-76
2022/04/06 04:29:50;;;;;;;121.60;109.15;;;10.00;98.50;;;;;;5034749;28;20504;-77
2022/04/06 04:32:17;;;;;;;120.28;108.05;;;10.00;98.40;;;;;;5016996;28;20692;-77
2022/04/06 04:34:44;;;;;;;121.40;108.65;;;10.00;98.50;;;;;;5000539;28;20056;-76
2022/04/06 04:37:11;;;;;;;123.78;110.70;;;10.00;98.40;;;;;;5033671;28;20057;-76
2022/04/06 04:39:38;;;;;;;120.93;108.28;;;9.90;98.40;;;;;;5033596;28;20527;-77
2022/04/06 04:42:06;;;;;;;120.32;107.45;;;10.00;98.20;;;;;;5034904;28;20057;-76
2022/04/06 04:44:33;;;;;;;118.50;106.38;;;10.00;98.30;;;;;;5000219;28;20056;-77
2022/04/06 04:47:01;;;;;;;118.20;106.35;;;9.90;98.20;;;;;;5034299;28;20734;-76
2022/04/06 04:49:28;;;;;;;117.97;105.72;;;9.90;98.10;;;;;;5033200;28;20161;-77
2022/04/06 04:51:54;;;;;;;;;;;9.90;98.00;;;;;;5000707;28;20133;-76
2022/04/06 04:54:24;;;;;;;117.25;105.28;;;10.00;98.00;;;;;;5016808;28;19931;-76
2022/04/06 04:56:52;;;;;;;116.70;104.60;;;9.90;98.00;;;;;;4999988;28;20050;-76
2022/04/06 04:59:19;;;;;;;115.95;104.45;;;9.90;98.10;;;;;;5033724;28;20064;-76
2022/04/06 05:01:46;;;;;;;116.93;104.78;;;9.90;98.00;;;;;;5016467;28;20436;-76
2022/04/06 05:04:14;;;;;;;;;;;9.90;98.00;;;;;;5033349;28;20053;-76
2022/04/06 05:06:41;;;;;;;115.72;103.75;;;9.90;97.90;;;;;;5034724;28;19925;-77
2022/04/06 05:09:08;;;;;;;115.18;103.50;;;9.90;97.80;;;;;;5032697;28;20496;-76
2022/04/06 05:11:35;;;;;;;117.30;105.20;;;9.90;97.70;;;;;;5033132;28;20053;-76
2022/04/06 05:14:03;;;;;;;115.10;103.40;;;9.80;97.70;;;;;;5034346;28;20053;-76
2022/04/06 05:16:30;;;;;;;114.88;103.28;;;9.80;97.70;;;;;;5015270;28;20049;-76
2022/04/06 05:18:57;;;;;;;114.45;103.35;;;9.80;97.70;;;;;;5015543;28;20046;-77
2022/04/06 05:21:26;;;;;;;116.70;105.30;;;9.80;97.70;;;;;;5014341;28;20052;-77
2022/04/06 05:23:53;;;;;;;113.93;102.50;;;9.80;97.70;;;;;;5033369;28;20054;-76
2022/04/06 05:26:19;;;;;;;;;;;9.80;97.70;;;;;;5032769;28;20558;-76
2022/04/06 05:28:46;;;;;;;114.70;102.93;;;9.70;97.70;;;;;;5014624;28;19932;-77
2022/04/06 05:31:14;;;;;;;118.07;106.15;;;9.80;97.80;;;;;;4998437;28;20101;-76
2022/04/06 05:33:41;;;;;;;118.30;106.45;;;9.70;97.80;;;;;;5014255;28;20053;-77
2022/04/06 05:36:08;;;;;;;116.93;105.35;;;9.70;97.80;;;;;;5032960;28;20448;-76
2022/04/06 05:38:36;;;;;;;117.07;105.10;;;9.80;97.70;;;;;;5031777;28;20049;-76
2022/04/06 05:41:03;;;;;;;119.18;107.47;;;9.80;97.70;;;;;;4998327;28;20128;-77
2022/04/06 05:43:30;;;;;;;116.65;105.07;;;9.70;97.70;;;;;;5014006;28;20512;-77
2022/04/06 05:45:57;;;;;;;118.95;106.60;;;9.70;97.90;;;;;;5011857;28;20082;-76
2022/04/06 05:48:24;;;;;;;119.00;107.35;;;9.70;98.20;;;;;;5015532;28;20181;-77
2022/04/06 05:50:51;;;;;;;;;;;9.70;98.10;;;;;;5015116;28;20534;-78
2022/04/06 05:53:18;;;;;;;120.80;108.75;;;9.70;97.80;;;;;;5031831;28;19926;-77
2022/04/06 05:55:47;;;;;;;117.25;105.53;;;9.70;97.80;;;;;;4996213;28;20050;-77
2022/04/06 05:58:14;;;;;;;116.57;104.57;;;9.70;97.90;;;;;;5032715;28;20046;-77
2022/04/06 06:00:41;;;;;;;116.93;105.50;;;9.60;97.90;;;;;;5025915;28;20058;-77
2022/04/06 06:03:08;;;;;;;115.90;104.28;;;9.70;97.90;;;;;;5022015;28;20149;-77
2022/04/06 06:05:35;;;;;;;119.38;107.45;;;9.70;98.00;;;;;;5022473;28;20055;-78
2022/04/06 06:08:02;;;;;;;117.22;105.05;;;9.70;97.90;;;;;;5023499;28;20050;-77
2022/04/06 06:10:29;;;;;;;117.78;106.30;;;9.70;97.90;;;;;;4991264;28;20532;-77
2022/04/06 06:12:58;;;;;;;115.38;103.68;;;9.60;98.00;;;;;;5011929;28;20146;-76
2022/04/06 06:15:25;;;;;;;115.07;103.50;;;9.70;98.00;;;;;;5032100;28;20100;-76
2022/04/06 06:17:52;;;;;;;113.65;102.22;;;9.70;98.00;;;;;;5031115;28;20675;-77
2022/04/06 06:20:20;;;;;;;114.50;103.00;;;9.60;98.10;;;;;;5029692;28;20052;-77
2022/04/06 06:22:47;;;;;;;115.30;103.97;;;9.60;98.10;;;;;;5013979;28;20056;-77
2022/04/06 06:25:14;;;;;;;113.70;102.45;;;9.60;98.10;;;;;;4998095;28;20046;-76
2022/04/06 06:27:42;;;;;;;113.47;101.72;;;9.60;98.00;;;;;;5031930;28;20060;-77
2022/04/06 06:30:12;;;;;;;113.20;102.07;;;9.60;98.30;;;;;;5024383;28;20050;-77
2022/04/06 06:32:39;;;;;;;115.10;103.57;;;9.60;98.10;;;;;;4988511;28;20046;-77
2022/04/06 06:35:08;;;;;;;113.95;102.75;;;9.50;98.10;;;;;;4989409;28;20050;-76
2022/04/06 06:37:35;;;;;;;114.38;102.45;;;9.60;98.10;;;;;;4994738;28;20100;-77
2022/04/06 06:40:02;;;;;;;113.53;102.05;;;9.50;98.00;;;;;;5014238;28;20504;-76
2022/04/06 06:42:29;;;;;;;111.88;100.50;;;9.60;98.10;;;;;;4998084;28;20060;-77
2022/04/06 06:44:56;;;;;;;114.28;102.25;;;9.60;98.00;;;;;;4997137;28;20108;-76
2022/04/06 06:47:24;;;;;;;;;;;9.60;97.90;;;;;;5030876;28;20049;-80
2022/04/06 06:49:51;;;;;;;114.32;102.60;;;9.50;98.00;;;;;;5014693;28;20283;-80
2022/04/06 06:52:18;;;;;;;115.28;104.43;;;9.50;98.10;;;;;;5029859;28;20054;-80
2022/04/06 06:54:45;;;;;;;;;;;9.50;98.10;;;;;;5031629;28;20060;-80
2022/04/06 06:57:12;;;;;;;120.13;108.22;;;9.40;98.00;;;;;;5003993;28;19926;-78
2022/04/06 06:59:39;;;;;;;115.07;103.80;;;9.40;98.00;;;;;;5019773;28;20042;-77
2022/04/06 07:02:07;;;;;;;116.03;104.38;;;9.50;98.10;;;;;;4991873;28;20106;-77
2022/04/06 07:04:35;;;;;;;115.97;104.35;;;9.50;98.00;;;;;;5013509;28;20129;-77
2022/04/06 07:07:02;;;;;;;118.32;106.53;;;9.50;98.00;;;;;;5013210;28;20496;-76
2022/04/06 07:09:29;;;;;;;111.95;100.68;;;9.50;98.20;;;;;;5012046;28;20046;-76
2022/04/06 07:11:56;;;;;;;114.07;102.50;;;9.50;98.10;;;;;;4997390;28;20077;-76
2022/04/06 07:14:23;;;;;;;113.32;101.90;;;9.50;98.10;;;;;;4997267;28;20046;-77
2022/04/06 07:16:49;;;;;;;;;;;9.50;98.10;;;;;;5014010;28;20064;-77
2022/04/06 07:19:16;;;;;;;115.03;103.25;;;9.50;98.10;;;;;;4997575;28;19929;-76
2022/04/06 07:21:46;;;;;;;115.03;103.03;;;9.50;98.20;;;;;;5029017;28;20050;-76
2022/04/06 07:24:12;;;;;;;114.03;102.22;;;9.50;98.30;;;;;;5013501;28;20548;-77
2022/04/06 07:26:39;;;;;;;113.50;101.78;;;9.60;98.40;;;;;;5030235;28;20054;-77
2022/04/06 07:29:06;;;;;;;114.50;102.70;;;9.50;98.40;;;;;;5006415;28;20050;-76
2022/04/06 07:31:33;;;;;;;113.80;102.13;;;9.60;98.30;;;;;;5020442;28;20084;-78
2022/04/06 07:34:00;;;;;;;113.43;101.72;;;9.50;98.40;;;;;;5024231;28;20042;-77
2022/04/06 07:36:27;;;;;;;112.90;101.43;;;9.50;98.40;;;;;;5029831;28;20057;-77
2022/04/06 07:38:55;;;;;;;114.53;102.20;;;9.50;98.60;;;;;;5008087;28;20452;-77
2022/04/06 07:41:24;;;;;;;113.38;101.45;;;9.50;98.60;;;;;;5010401;28;20070;-77
2022/04/06 07:43:51;;;;;;;117.63;105.38;;;9.50;98.70;;;;;;5028605;28;20054;-77
2022/04/06 07:46:18;;;;;;;113.47;101.88;;;9.60;98.60;;;;;;5013574;28;20105;-78
2022/04/06 07:48:45;;;;;;;113.07;101.43;;;9.50;98.60;;;;;;4997297;28;20539;-78
2022/04/06 07:51:12;;;;;;;112.82;101.47;;;9.50;98.70;;;;;;5031786;28;20053;-77
2022/04/06 07:53:39;;;;;;;111.90;100.68;;;9.60;98.70;;;;;;5014147;28;20516;-77
2022/04/06 07:56:07;;;;;;;113.80;102.13;;;9.50;98.80;;;;;;5014265;28;20054;-78
2022/04/06 07:58:34;;;;;;;114.60;102.80;;;9.50;98.90;;;;;;4999119;28;20042;-78
2022/04/06 08:01:02;;;;;;;116.75;104.68;;;9.50;98.90;;;;;;5016480;28;20054;-77
2022/04/06 08:03:29;;;;;;;115.78;103.32;;;9.60;98.90;;;;;;5014485;28;20049;-77
2022/04/06 08:05:57;;;;;;;114.75;103.03;;;9.60;98.80;;;;;;5015685;28;20057;-77
2022/04/06 08:08:24;;;;;;;116.53;104.90;;;9.60;98.80;;;;;;5034458;28;20516;-78
2022/04/06 08:10:50;;;;;;;115.05;103.13;;;9.60;98.80;;;;;;5034288;28;20134;-77
2022/04/06 08:13:19;;;;;;;115.15;103.47;;;9.60;98.80;;;;;;5034772;28;20053;-77
2022/04/06 08:15:46;;;;;;;114.78;102.93;;;9.70;98.80;;;;;;5016957;28;20526;-77
2022/04/06 08:18:12;;;;;;;116.75;105.07;;;9.70;98.80;;;;;;5034311;28;20077;-77
2022/04/06 08:20:40;;;;;;;116.10;103.85;;;9.70;98.90;;;;;;5034582;28;20508;-77
2022/04/06 08:23:06;;;;;;;115.50;103.80;;;9.70;98.90;;;;;;5016260;28;20045;-77
2022/04/06 08:25:53;;;;;;;115.90;103.50;;;9.70;99.00;;;;;;5033857;28;20102;-79
2022/04/06 08:28:21;;;;;;;116.05;103.97;;;9.70;99.10;;;;;;5016333;28;20061;-78
2022/04/06 08:30:48;;;;;;;118.35;106.07;;;9.70;99.30;;;;;;5033822;28;20045;-77
2022/04/06 08:33:15;;;;;;;115.88;103.70;;;9.70;99.50;;;;;;5032388;28;20046;-78
2022/04/06 08:35:43;;;;;;;116.28;104.35;;;9.70;99.50;;;;;;5016582;28;20045;-78
2022/04/06 08:38:14;;;;;;;114.72;103.22;;;9.70;99.50;;;;;;5034127;28;20050;-78
2022/04/06 08:40:43;;;;;;;118.93;106.57;;;9.70;99.30;;;;;;4997805;28;20104;-78
2022/04/06 08:43:10;;;;;;;117.47;105.70;;;9.70;99.40;;;;;;5016469;28;20053;-79
2022/04/06 08:45:42;;;;;;;116.93;104.97;;;9.80;99.30;;;;;;5016325;28;20515;-78
2022/04/06 08:48:10;;;;;;;116.75;104.90;;;9.70;99.40;;;;;;5015486;28;20491;-77
2022/04/06 08:50:39;;;;;;;114.55;102.72;;;9.70;99.50;;;;;;4994703;28;20045;-78
2022/04/06 08:53:08;;;;;;;117.45;105.38;;;9.70;99.50;;;;;;5015461;28;20054;-79
2022/04/06 08:55:36;;;;;;;115.28;103.25;;;9.70;99.50;;;;;;5014578;28;20064;-78
2022/04/06 08:58:04;;;;;;;116.57;104.72;;;9.70;99.40;;;;;;5012681;28;20081;-78
2022/04/06 09:00:31;;;;;;;113.60;102.18;;;9.70;99.40;;;;;;5032174;28;20049;-78
2022/04/06 09:03:00;;;;;;;115.38;103.80;;;9.70;99.30;;;;;;5032860;28;20072;-78
2022/04/06 09:05:31;;;;;;;113.85;102.25;;;9.70;99.40;;;;;;5031582;28;20065;-78
2022/04/06 09:07:58;;;;;;;113.63;102.13;;;9.60;99.40;;;;;;5032963;28;20046;-78
2022/04/06 09:10:31;;;;;;;116.68;104.90;;;9.70;99.40;;;;;;5030099;28;20057;-78
2022/04/06 09:13:12;;;;;;;114.40;103.13;;;9.70;99.20;;;;;;5016010;28;20053;-78
2022/04/06 09:15:40;;;;;;;114.28;102.75;;;9.70;99.40;;;;;;5033494;28;20593;-78
2022/04/06 09:18:08;;;;;;;114.72;103.10;;;9.70;99.20;;;;;;5032477;28;20049;-78
2022/04/06 09:20:35;;;;;;;114.47;102.82;;;9.80;99.20;;;;;;5032703;28;20057;-78
2022/04/06 09:23:03;;;;;;;115.25;103.78;;;9.80;99.10;;;;;;5015096;28;20447;-78
2022/04/06 09:25:37;;;;;;;114.47;102.88;;;9.80;99.20;;;;;;5016004;28;20050;-79
2022/04/06 09:28:09;;;;;;;113.25;102.03;;;9.90;99.00;;;;;;5015535;28;20046;-78
2022/04/06 09:30:39;;;;;;;114.85;103.07;;;9.90;99.00;;;;;;5015943;28;20046;-78
2022/04/06 09:33:13;;;;;;;115.35;103.72;;;9.90;99.00;;;;;;5033431;28;20049;-78
2022/04/06 09:35:41;;;;;;;114.63;103.20;;;9.90;99.00;;;;;;5016585;28;20076;-78
2022/04/06 09:38:16;;;;;;;113.40;102.10;;;10.00;99.00;;;;;;5014995;28;20046;-79
2022/04/06 09:40:43;;;;;;;114.38;102.95;;;10.00;99.10;;;;;;5015896;28;20057;-79
2022/04/06 09:43:26;;;;;;;114.07;102.60;;;10.00;98.90;;;;;;5016223;28;20050;-78
2022/04/06 09:48:57;;;;;;;112.95;101.68;;;10.10;98.80;;;;;;5012606;28;20050;-78
2022/04/06 09:51:24;;;;;;;118.43;106.28;;;10.10;98.80;;;;;;5031620;28;20355;-77
2022/04/06 09:53:52;;;;;;;114.60;103.03;;;10.00;99.00;;;;;;5032630;28;20050;-78
2022/04/06 09:56:20;;;;;;;114.35;103.07;;;10.10;99.10;;;;;;5030223;28;20057;-78
2022/04/06 09:58:48;;;;;;;116.93;104.95;;;10.10;99.00;;;;;;5014428;28;20073;-78
2022/04/06 10:01:16;;;;;;;117.57;105.43;;;10.20;98.90;;;;;;4988873;28;20051;-78
2022/04/06 10:03:49;;;;;;;117.95;106.15;;;10.20;98.90;;;;;;5020842;28;20046;-78
2022/04/06 10:06:17;;;;;;;117.13;105.18;;;10.20;98.90;;;;;;5013058;28;20444;-78
2022/04/06 10:08:46;;;;;;;116.43;104.95;;;10.30;98.80;;;;;;5030637;28;20050;-78
2022/04/06 10:11:13;;;;;;;119.18;107.13;;;10.30;98.80;;;;;;5026537;28;20058;-78
2022/04/06 10:13:41;;;;;;;116.65;104.65;;;10.40;98.80;;;;;;5024397;28;20057;-78
2022/04/06 10:16:10;;;;;;;116.97;105.25;;;10.40;98.60;;;;;;5024331;28;20064;-78
2022/04/06 10:18:37;;;;;;;116.18;104.43;;;10.40;98.70;;;;;;5013085;28;20038;-78
2022/04/06 10:21:12;;;;;;;118.13;106.60;;;10.50;98.70;;;;;;5030024;28;20499;-79
2022/04/06 10:23:48;;;;;;;115.97;104.50;;;10.50;98.80;;;;;;4995046;28;20060;-78
2022/04/06 10:26:20;;;;;;;;;;;10.50;98.70;;;;;;5022740;28;20073;-78
2022/04/06 10:28:49;;;;;;;117.30;105.65;;;10.60;98.60;;;;;;5013261;28;20402;-78
2022/04/06 10:31:18;;;;;;;120.07;107.60;;;10.60;98.60;;;;;;5028580;28;20054;-77
2022/04/06 10:33:45;;;;;;;116.53;104.65;;;10.60;98.70;;;;;;5013636;28;20046;-78
2022/04/06 10:36:21;;;;;;;117.72;105.57;;;10.70;98.60;;;;;;5021118;28;20054;-78
2022/04/06 10:39:16;;;;;;;116.20;104.50;;;10.70;98.60;;;;;;4995541;28;20583;-78
2022/04/06 10:42:14;;;;;;;117.37;105.60;;;10.70;98.50;;;;;;5005146;28;20054;-78
2022/04/06 10:44:41;;;;;;;118.32;106.38;;;10.70;98.60;;;;;;5031425;28;20128;-79
2022/04/06 10:47:10;;;;;;;117.13;105.32;;;10.70;98.60;;;;;;5013321;28;20716;-78
2022/04/06 10:49:37;;;;;;;115.95;104.38;;;10.70;98.70;;;;;;5030862;28;20056;-78
2022/04/06 10:52:23;;;;;;;116.22;104.40;;;10.70;98.70;;;;;;5014535;28;20049;-78
2022/04/06 10:54:52;;;;;;;;;;;10.70;98.70;;;;;;5014269;28;20050;-78
2022/04/06 10:57:20;;;;;;;116.50;104.78;;;10.70;98.70;;;;;;5014456;28;19984;-78
2022/04/06 11:00:16;;;;;;;117.78;105.82;;;10.70;98.70;;;;;;5030663;28;20053;-78
2022/04/06 11:02:50;;;;;;;116.30;104.57;;;10.70;98.50;;;;;;5012667;28;20045;-79
2022/04/06 11:05:46;;;;;;;118.32;106.35;;;10.70;98.40;;;;;;5010744;28;20147;-79
2022/04/06 11:11:45;;;;;;;118.20;106.18;;;10.70;98.70;;;;;;5009415;28;20108;-77
2022/04/06 11:14:12;;;;;;;119.03;107.25;;;10.70;99.10;;;;;;5022884;28;20479;-79
2022/04/06 11:16:43;;;;;;;120.47;108.50;;;10.70;99.20;;;;;;5026581;28;20046;-78
2022/04/06 11:19:11;;;;;;;119.03;107.25;;;10.70;99.30;;;;;;5005921;28;20050;-78
2022/04/06 11:21:47;;;;;;;124.70;112.40;;;10.70;99.50;;;;;;5030036;28;20525;-78
2022/04/06 11:24:18;;;;;;;120.53;108.75;;;10.70;99.40;;;;;;5011660;28;20628;-78
2022/04/06 11:26:46;;;;;;;124.22;112.07;;;10.70;99.40;;;;;;5029337;28;20472;-79
2022/04/06 11:29:13;;;;;;;119.72;108.45;;;10.70;99.60;;;;;;5031502;28;20046;-78
2022/04/06 11:31:58;;;;;;;121.00;109.03;;;10.70;99.40;;;;;;5031489;28;20046;-78
2022/04/06 11:34:37;;;;;;;120.43;108.75;;;10.70;99.50;;;;;;5000992;28;20046;-81
2022/04/06 11:37:06;;;;;;;125.15;113.03;;;10.70;99.50;;;;;;5015555;28;20052;-80
2022/04/06 11:39:33;;;;;;;121.35;109.13;;;10.70;99.60;;;;;;5017329;28;20058;-80
2022/04/06 11:42:03;;;;;;;121.28;109.47;;;10.70;99.80;;;;;;5033428;28;20058;-80
2022/04/06 11:44:31;;;;;;;120.20;108.25;;;10.70;99.90;;;;;;5032952;28;20133;-80
2022/04/06 11:46:58;;;;;;;121.95;110.07;;;10.70;99.90;;;;;;5016688;28;20050;-80
2022/04/06 11:49:28;;;;;;;120.97;108.93;;;10.70;99.80;;;;;;5033751;28;20064;-80
2022/04/06 11:51:55;;;;;;;121.65;109.97;;;10.70;99.80;;;;;;4998120;28;20526;-81
2022/04/06 11:54:23;;;;;;;122.07;109.90;;;10.70;99.70;;;;;;5016796;28;20050;-80
2022/04/06 11:56:51;;;;;;;120.07;108.00;;;10.80;99.60;;;;;;5017392;28;20061;-81
2022/04/06 11:59:21;;;;;;;120.40;108.40;;;10.80;99.60;;;;;;5034045;28;20057;-81
2022/04/06 12:01:48;;;;;;;119.28;107.63;;;10.80;99.70;;;;;;5034139;28;20155;-81
2022/04/06 12:04:18;;;;;;;120.53;108.40;;;10.90;99.60;;;;;;5017302;28;20051;-81
2022/04/06 12:06:45;;;;;;;124.53;112.43;;;10.90;99.60;;;;;;5017667;28;20509;-81
2022/04/06 12:09:13;;;;;;;121.22;109.47;;;10.90;99.90;;;;;;5000729;28;20054;-80
2022/04/06 12:11:40;;;;;;;122.78;110.82;;;11.00;99.70;;;;;;5017086;28;20046;-81
2022/04/06 12:14:10;;;;;;;121.72;109.60;;;11.10;99.60;;;;;;5016671;28;20050;-80
2022/04/06 12:16:39;;;;;;;122.47;110.63;;;11.10;99.50;;;;;;5017545;28;20068;-80
2022/04/06 12:19:12;;;;;;;121.22;109.10;;;11.10;99.50;;;;;;5017504;28;20112;-80
2022/04/06 12:21:42;;;;;;;118.47;106.85;;;11.20;99.60;;;;;;5017312;28;20046;-81
2022/04/06 12:24:11;;;;;;;119.78;107.97;;;11.20;99.20;;;;;;5000642;28;20053;-80
2022/04/06 12:26:45;;;;;;;118.43;106.57;;;11.30;99.10;;;;;;5017692;28;20065;-80
2022/04/06 12:29:16;;;;;;;120.40;108.78;;;11.30;99.00;;;;;;5000675;28;20057;-80
2022/04/06 12:31:46;;;;;;;121.80;110.05;;;11.30;99.00;;;;;;5016455;28;20564;-80
2022/04/06 12:34:31;;;;;;;117.18;105.68;;;11.30;99.00;;;;;;5017161;28;20132;-80